This is the latest recevied weather packets stored in our database for station/object W6DSP. If no packets are shown the sender has not sent any weather packets the latest 10 day(s).
| Time | Temp. | Humidity | Pressure | Rain* | Wind** | Luminosity | Snow |
|---|---|---|---|---|---|---|---|
| 1778155478 | 5.56° C | 75% | 1016.4 hPa | 0 mm | - | - | - |
| 1778154758 | 5° C | 77% | 1016.2 hPa | 0 mm | - | - | - |
| 1778154057 | 5° C | 77% | 1016.3 hPa | 0 mm | - | - | - |
| 1778153320 | 5° C | 78% | 1016.1 hPa | 0 mm | - | - | - |
| 1778152568 | 4.44° C | 79% | 1015.9 hPa | 0 mm | - | - | - |
| 1778151837 | 4.44° C | 80% | 1015.9 hPa | 0 mm | - | - | - |
| 1778151132 | 3.89° C | 81% | 1015.8 hPa | 0 mm | - | - | - |
| 1778150383 | 3.89° C | 81% | 1015.6 hPa | 0 mm | - | - | - |
| 1778149625 | 4.44° C | 80% | 1015.6 hPa | 0 mm | - | - | - |
| 1778148929 | 4.44° C | 80% | 1015.6 hPa | 0 mm | - | - | - |
| 1778148239 | 4.44° C | 78% | 1015.6 hPa | 0 mm | - | - | - |
| 1778147521 | 4.44° C | 79% | 1015.6 hPa | 0 mm | - | - | - |
| 1778146772 | 3.89° C | 80% | 1015.4 hPa | 0 mm | - | - | - |
| 1778146070 | 3.89° C | 81% | 1015.5 hPa | 0 mm | - | - | - |
| 1778145316 | 3.33° C | 82% | 1015.4 hPa | 0 mm | - | - | - |
| 1778144609 | 3.33° C | 83% | 1015.5 hPa | 0 mm | - | - | - |
| 1778143858 | 3.33° C | 83% | 1015.5 hPa | 0 mm | - | - | - |
| 1778143167 | 3.33° C | 84% | 1015.3 hPa | 0 mm | - | - | - |
| 1778142418 | 3.33° C | 84% | 1015.2 hPa | 0 mm | - | - | - |
| 1778141671 | 3.33° C | 84% | 1015.3 hPa | 0 mm | - | - | - |
| 1778140933 | 3.33° C | 84% | 1015.4 hPa | 0 mm | - | - | - |
| 1778140177 | 3.33° C | 84% | 1015.4 hPa | 0 mm | - | - | - |
| 1778139484 | 3.33° C | 84% | 1015.3 hPa | 0 mm | - | - | - |
| 1778138728 | 3.89° C | 84% | 1015.4 hPa | 0 mm | - | - | - |
| 1778138013 | 3.89° C | 84% | 1015.2 hPa | 0 mm | - | - | - |
* Rain latest hour (hover to see other rain measurements)
** Current wind speed in m/s (hover to see current wind gust speed)